Airfield :







YOU CAN JOIN US ON...

 
LOGIN :

Register | Disclaimer

   EN    FR    IT 

 









Legend :    VFR   Marginal VFR   IFR   Intensive IFR   Very Intensive IFR
Visi :
Ceiling :
>= 8 km
>= 3000ft
5 to 8 km
1000 to 3000 ft
1500m to 5 km
500 to 1000 ft
800 to 1500m
200 to 500 ft
< 800m
< 200 ft
Symbols :   Thunderstorms  Fog  Heavy snow  Heavy precipitations  Wind > 20 kt







- Airport Elevation : 328 ft


KGFL - Floyd Bennett Memorial

CURRENT METAR :
  • 160253Z AUTO 32007KT 10SM CLR 16/12 A3007 RMK AO2 SLP180 T01610122 53001

EXPIRED METARs :
  • 160153Z AUTO 31004KT 10SM FEW085 17/12 A3006 RMK AO2 SLP180 T01670122
  • 160053Z AUTO 26004KT 10SM FEW060 BKN090 18/12 A3006 RMK AO2 SLP180 T01830122

TAF KGFL
Valid from the 16 at 00:00 until the 17 at 00:00 UTC


152323Z 1600/1624 28004KT P6SM SCT050 BKN100
FM160100 VRB03KT P6SM BKN050 OVC080
FM160500 00000KT P6SM OVC050
FM161300 02004KT P6SM SCT050 BKN100
FM161500 01007KT P6SM FEW100 SCT250
No reported NOTAMs for that airfield.



MET'MAP, your aeronautical weather chart ! - Copyright ORBIFLY December 2007 - Disclaimer

ORBIFLY MET'MAP TEAM :

Programming & Development : Alexandra Zaïnal
Concept & Development : Baudouin d'Aumeries
Co-Development & Prog : Marc-Olivier Méhu
Technical & hardware support : Manuel Goepfert

Contact : metmap@orbifly.com




SOURCES & CREDITS :

   NOAA